Time;durP1;ratioP1;P1;durP2;ratioP2;P2;SDS_P1;SDS_P2;PMS_P1;PMS_P2;Temp;Humidity;BMP_temperature;BMP_pressure;BME280_temperature;BME280_humidity;BME280_pressure;Samples;Min_cycle;Max_cycle;Signal;HPM_P1;HPM_P2
2023/10/24 00:02:20;;;;;;;7.97;3.20;;;;;;;13.90;100.00;98412.28;4485316;32;20092;-74
2023/10/24 00:04:48;;;;;;;3.47;2.60;;;;;;;13.79;100.00;98416.94;4485099;32;20541;-74
2023/10/24 00:07:15;;;;;;;6.15;3.20;;;;;;;13.69;100.00;98416.28;4485746;31;20167;-74
2023/10/24 00:09:43;;;;;;;6.37;3.53;;;;;;;13.65;100.00;98410.50;4485113;32;20097;-74
2023/10/24 00:12:11;;;;;;;6.37;3.10;;;;;;;13.64;100.00;98406.25;4485257;32;20114;-74
2023/10/24 00:14:38;;;;;;;6.65;3.37;;;;;;;13.77;100.00;98402.28;4484330;32;20464;-75
2023/10/24 00:17:06;;;;;;;5.47;3.60;;;;;;;13.81;100.00;98393.87;4473789;32;20123;-75
2023/10/24 00:19:34;;;;;;;8.38;3.53;;;;;;;13.80;100.00;98386.16;4469404;32;20126;-75
2023/10/24 00:22:02;;;;;;;8.18;3.50;;;;;;;13.93;100.00;98381.19;4469373;32;20163;-75
2023/10/24 00:24:30;;;;;;;9.02;3.20;;;;;;;13.84;100.00;98376.94;4469433;32;20153;-75
2023/10/24 00:26:58;;;;;;;5.37;2.78;;;;;;;13.87;100.00;98365.22;4469335;32;20128;-74
2023/10/24 00:29:26;;;;;;;6.90;3.62;;;;;;;13.92;100.00;98358.47;4484597;32;20644;-74
2023/10/24 00:31:54;;;;;;;5.93;3.55;;;;;;;13.94;100.00;98356.50;4485166;31;20091;-74
2023/10/24 00:34:23;;;;;;;10.95;3.08;;;;;;;13.92;100.00;98347.94;4484780;32;20092;-74
2023/10/24 00:36:51;;;;;;;8.02;3.37;;;;;;;13.90;100.00;98349.94;4483680;32;20757;-74
2023/10/24 00:39:19;;;;;;;10.18;3.30;;;;;;;13.94;100.00;98340.69;4484934;32;20097;-74
2023/10/24 00:41:47;;;;;;;9.57;3.30;;;;;;;13.84;100.00;98338.25;4485283;32;20108;-74
2023/10/24 00:44:15;;;;;;;8.52;3.00;;;;;;;13.82;100.00;98331.50;4484954;32;20832;-75
2023/10/24 00:46:43;;;;;;;5.93;3.28;;;;;;;13.70;100.00;98336.34;4485005;32;20096;-74
2023/10/24 00:49:12;;;;;;;5.25;3.62;;;;;;;13.72;100.00;98334.34;4484920;31;20476;-74
2023/10/24 00:51:41;;;;;;;6.30;3.30;;;;;;;13.63;100.00;98328.28;4485213;31;20107;-74
2023/10/24 00:54:09;;;;;;;6.40;3.15;;;;;;;13.57;100.00;98334.19;4483654;32;20096;-74
2023/10/24 00:56:38;;;;;;;4.72;3.37;;;;;;;13.50;100.00;98335.84;4484996;31;20438;-74
2023/10/24 00:59:06;;;;;;;8.55;3.67;;;;;;;13.65;100.00;98341.25;4483507;32;20374;-74
2023/10/24 01:01:35;;;;;;;7.30;3.22;;;;;;;13.64;100.00;98345.72;4483713;32;20487;-74
2023/10/24 01:04:04;;;;;;;9.45;3.97;;;;;;;13.61;100.00;98342.56;4484850;31;20122;-74
2023/10/24 01:06:32;;;;;;;7.87;3.15;;;;;;;13.57;100.00;98355.25;4483821;32;20096;-74
2023/10/24 01:09:00;;;;;;;9.23;3.60;;;;;;;13.61;100.00;98364.47;4484910;32;20115;-74
2023/10/24 01:11:28;;;;;;;5.10;2.95;;;;;;;13.56;100.00;98363.31;4484854;31;20096;-75
2023/10/24 01:13:56;;;;;;;7.93;3.15;;;;;;;13.51;100.00;98376.16;4483526;32;20096;-75
2023/10/24 01:16:24;;;;;;;5.43;3.62;;;;;;;13.50;100.00;98375.31;4484860;31;20172;-74
2023/10/24 01:18:52;;;;;;;12.80;4.12;;;;;;;13.55;100.00;98369.56;4484712;32;20795;-74
2023/10/24 01:21:20;;;;;;;8.93;3.42;;;;;;;13.49;100.00;98373.69;4484781;32;20461;-74
2023/10/24 01:23:48;;;;;;;7.45;2.62;;;;;;;13.50;100.00;98372.69;4484748;32;20080;-75
2023/10/24 01:26:17;;;;;;;4.05;2.83;;;;;;;13.72;100.00;98365.94;4484592;31;20518;-74
2023/10/24 01:28:46;;;;;;;8.38;2.87;;;;;;;13.76;100.00;98369.03;4472601;32;20127;-75
2023/10/24 01:31:14;;;;;;;7.57;3.33;;;;;;;13.76;100.00;98356.72;4469288;32;20097;-74
2023/10/24 01:33:45;;;;;;;5.12;3.22;;;;;;;13.66;100.00;98350.81;4469262;32;20076;-75
2023/10/24 01:36:23;;;;;;;6.18;3.65;;;;;;;13.40;100.00;98349.19;4468992;32;20454;-75
2023/10/24 01:38:51;;;;;;;5.85;3.00;;;;;;;13.48;100.00;98353.63;4468758;32;20135;-75
2023/10/24 01:41:19;;;;;;;5.80;2.90;;;;;;;13.52;100.00;98346.22;4469232;32;20089;-74
2023/10/24 01:43:49;;;;;;;4.07;2.80;;;;;;;13.30;100.00;98341.41;4468904;32;20110;-74
2023/10/24 01:46:18;;;;;;;16.05;3.45;;;;;;;13.39;100.00;98344.09;4468841;32;20162;-74
2023/10/24 01:48:45;;;;;;;6.55;3.10;;;;;;;13.32;100.00;98342.09;4468691;32;20585;-75
2023/10/24 01:51:12;;;;;;;4.62;2.22;;;;;;;13.25;100.00;98342.94;4467509;32;20092;-74
2023/10/24 01:53:40;;;;;;;5.68;2.97;;;;;;;13.25;100.00;98354.25;4468753;32;20088;-74
2023/10/24 01:56:11;;;;;;;6.07;2.47;;;;;;;13.25;100.00;98343.75;4468804;32;20141;-75
2023/10/24 01:58:39;;;;;;;4.72;2.40;;;;;;;13.24;100.00;98349.97;4468661;32;20093;-74
2023/10/24 02:01:07;;;;;;;6.53;2.85;;;;;;;13.14;100.00;98338.78;4468719;32;20097;-74
2023/10/24 02:03:35;;;;;;;8.30;2.87;;;;;;;13.01;100.00;98333.22;4468722;32;20088;-75
2023/10/24 02:06:03;;;;;;;6.03;3.03;;;;;;;13.01;100.00;98326.16;4468643;32;20088;-74
2023/10/24 02:08:31;;;;;;;5.45;2.53;;;;;;;12.98;100.00;98333.56;4468827;32;20164;-74
2023/10/24 02:10:59;;;;;;;6.35;2.80;;;;;;;12.92;100.00;98320.06;4468581;32;20100;-74
2023/10/24 02:13:27;;;;;;;3.65;2.65;;;;;;;12.96;100.00;98317.94;4468793;32;20119;-75
2023/10/24 02:15:55;;;;;;;4.78;2.92;;;;;;;13.07;100.00;98316.78;4471907;32;20161;-74
2023/10/24 02:18:23;;;;;;;6.90;3.30;;;;;;;13.08;100.00;98307.88;4483972;32;20569;-74
2023/10/24 02:20:51;;;;;;;7.00;3.40;;;;;;;13.12;100.00;98323.19;4483894;32;20488;-74
2023/10/24 02:23:18;;;;;;;5.45;3.10;;;;;;;13.20;100.00;98321.53;4484221;32;20104;-74
2023/10/24 02:25:46;;;;;;;4.60;3.05;;;;;;;13.11;100.00;98324.19;4484039;32;20120;-74
2023/10/24 02:28:14;;;;;;;6.45;3.00;;;;;;;13.11;100.00;98326.81;4476528;32;20183;-74
2023/10/24 02:30:41;;;;;;;7.07;2.95;;;;;;;13.06;100.00;98336.16;4468147;32;20104;-74
2023/10/24 02:33:09;;;;;;;6.80;2.80;;;;;;;13.00;100.00;98328.94;4468148;32;20096;-74
2023/10/24 02:35:37;;;;;;;5.05;2.83;;;;;;;12.94;100.00;98327.78;4468023;32;20164;-75
2023/10/24 02:38:06;;;;;;;5.03;2.85;;;;;;;12.93;100.00;98318.25;4468410;32;20108;-74
2023/10/24 02:40:34;;;;;;;9.38;3.72;;;;;;;12.87;100.00;98321.50;4470167;32;20084;-74
2023/10/24 02:43:02;;;;;;;4.87;3.03;;;;;;;12.81;100.00;98330.91;4470156;32;20138;-74
2023/10/24 02:45:29;;;;;;;4.07;2.42;;;;;;;12.78;100.00;98336.47;4469947;32;20105;-74
2023/10/24 02:47:57;;;;;;;4.85;3.08;;;;;;;12.75;100.00;98319.22;4470176;32;20089;-74
2023/10/24 02:50:25;;;;;;;5.47;2.50;;;;;;;12.71;100.00;98317.06;4469922;32;20112;-74
2023/10/24 02:52:53;;;;;;;5.15;2.95;;;;;;;12.72;100.00;98318.72;4470128;32;20130;-74
2023/10/24 02:55:21;;;;;;;6.50;2.92;;;;;;;12.78;100.00;98318.09;4469948;32;20097;-74
2023/10/24 02:57:49;;;;;;;5.90;2.90;;;;;;;12.83;100.00;98304.44;4469928;32;20154;-74
2023/10/24 03:00:16;;;;;;;6.60;2.72;;;;;;;12.87;100.00;98313.62;4469868;32;20118;-74
2023/10/24 03:02:44;;;;;;;4.75;2.83;;;;;;;12.99;100.00;98303.63;4469976;32;20115;-74
2023/10/24 03:05:11;;;;;;;6.70;2.92;;;;;;;13.07;100.00;98286.03;4469859;32;20093;-74
2023/10/24 03:07:39;;;;;;;5.05;2.95;;;;;;;13.14;100.00;98276.50;4469894;32;20104;-74
2023/10/24 03:10:07;;;;;;;4.75;2.70;;;;;;;13.27;100.00;98276.00;4469534;32;20123;-74
2023/10/24 03:12:36;;;;;;;6.35;3.10;;;;;;;13.34;100.00;98277.97;4469930;32;20462;-74
2023/10/24 03:15:05;;;;;;;6.82;3.28;;;;;;;13.39;100.00;98278.31;4469941;32;20150;-74
2023/10/24 03:17:33;;;;;;;4.93;2.92;;;;;;;13.33;100.00;98261.34;4483941;32;20104;-74
2023/10/24 03:20:02;;;;;;;16.00;4.25;;;;;;;13.36;100.00;98252.34;4485659;32;20163;-74
2023/10/24 03:22:32;;;;;;;7.30;3.72;;;;;;;13.27;100.00;98247.06;4485449;31;20126;-74
2023/10/24 03:25:00;;;;;;;5.93;3.28;;;;;;;13.13;100.00;98242.50;4485487;32;20482;-75
2023/10/24 03:27:27;;;;;;;5.68;3.53;;;;;;;13.02;100.00;98254.16;4482967;32;20093;-75
2023/10/24 03:29:54;;;;;;;8.02;3.80;;;;;;;13.00;100.00;98268.47;4469937;32;20470;-74
2023/10/24 03:32:22;;;;;;;5.20;3.25;;;;;;;13.03;100.00;98273.38;4470035;32;20413;-74
2023/10/24 03:34:49;;;;;;;5.82;3.53;;;;;;;12.95;100.00;98268.97;4469417;32;20097;-74
2023/10/24 03:37:17;;;;;;;7.95;3.50;;;;;;;12.93;100.00;98271.75;4470022;32;20154;-74
2023/10/24 03:39:45;;;;;;;7.12;3.95;;;;;;;12.85;100.00;98284.88;4469967;32;20119;-75
2023/10/24 03:42:16;;;;;;;8.63;3.58;;;;;;;12.82;100.00;98293.09;4469896;32;20107;-74
2023/10/24 03:44:43;;;;;;;7.37;3.62;;;;;;;12.76;100.00;98299.84;4469672;32;20093;-75
2023/10/24 03:47:10;;;;;;;8.52;4.03;;;;;;;12.66;100.00;98299.16;4469963;32;20139;-74
2023/10/24 03:49:38;;;;;;;7.55;3.45;;;;;;;12.56;100.00;98293.22;4468667;32;20096;-74
2023/10/24 03:52:05;;;;;;;11.00;3.70;;;;;;;12.45;100.00;98288.28;4469676;32;20107;-74
2023/10/24 03:54:33;;;;;;;6.32;3.92;;;;;;;12.42;100.00;98286.81;4469777;32;20085;-74
2023/10/24 03:57:01;;;;;;;7.25;3.30;;;;;;;12.36;100.00;98287.44;4473024;32;20100;-76
2023/10/24 03:59:28;;;;;;;7.28;3.60;;;;;;;12.32;100.00;98278.25;4485039;31;20100;-76
2023/10/24 04:01:57;;;;;;;8.30;3.65;;;;;;;12.28;100.00;98266.41;4485152;31;20096;-75
2023/10/24 04:04:24;;;;;;;7.28;3.40;;;;;;;12.20;100.00;98262.78;4485057;31;20092;-76
2023/10/24 04:06:55;;;;;;;10.63;4.07;;;;;;;12.19;100.00;98266.38;4485420;31;20100;-76
2023/10/24 04:09:22;;;;;;;7.07;3.53;;;;;;;12.13;100.00;98261.78;4483980;32;20165;-76
2023/10/24 04:12:07;;;;;;;6.62;3.50;;;;;;;12.03;100.00;98261.09;4485075;31;20133;-76
2023/10/24 04:14:34;;;;;;;6.80;3.53;;;;;;;11.96;100.00;98257.44;4485326;31;20446;-76
2023/10/24 04:17:01;;;;;;;5.80;3.37;;;;;;;11.96;100.00;98257.44;4485289;31;20166;-76
2023/10/24 04:19:29;;;;;;;6.65;2.75;;;;;;;11.95;100.00;98258.44;4485277;31;20542;-77
2023/10/24 04:21:56;;;;;;;9.45;3.70;;;;;;;12.04;100.00;98247.78;4485126;31;20096;-76
2023/10/24 04:24:23;;;;;;;8.40;3.50;;;;;;;12.10;100.00;98253.38;4485053;31;20128;-76
2023/10/24 04:26:51;;;;;;;5.43;3.45;;;;;;;12.13;100.00;98256.53;4484728;31;20096;-76
2023/10/24 04:29:18;;;;;;;8.75;3.92;;;;;;;12.00;100.00;98256.97;4485123;31;20175;-76
2023/10/24 04:31:45;;;;;;;8.13;3.67;;;;;;;12.23;100.00;98265.09;4484853;32;20533;-76
2023/10/24 04:34:13;;;;;;;7.75;3.70;;;;;;;12.14;100.00;98271.31;4484267;31;20093;-76
2023/10/24 04:36:41;;;;;;;6.40;3.65;;;;;;;12.06;100.00;98273.88;4484383;32;20145;-76
2023/10/24 04:39:08;;;;;;;6.37;3.30;;;;;;;12.00;100.00;98282.41;4484522;31;20124;-76
2023/10/24 04:41:36;;;;;;;6.47;3.22;;;;;;;11.95;100.00;98277.63;4484301;32;20441;-76
2023/10/24 04:44:04;;;;;;;6.05;3.00;;;;;;;11.85;100.00;98275.09;4478122;32;20101;-76
2023/10/24 04:46:31;;;;;;;7.07;3.37;;;;;;;11.81;100.00;98271.16;4475928;32;20131;-76
2023/10/24 04:48:59;;;;;;;5.15;2.60;;;;;;;11.75;100.00;98273.56;4471666;32;20127;-76
2023/10/24 04:51:26;;;;;;;10.55;3.35;;;;;;;11.69;100.00;98267.16;4469266;32;20107;-77
2023/10/24 04:53:53;;;;;;;11.98;3.78;;;;;;;11.51;100.00;98257.53;4469461;32;20089;-75
2023/10/24 04:56:21;;;;;;;5.85;3.10;;;;;;;11.45;100.00;98255.53;4469503;32;20088;-76
2023/10/24 04:58:49;;;;;;;5.57;3.17;;;;;;;11.50;100.00;98250.63;4469118;32;20556;-76
2023/10/24 05:01:18;;;;;;;3.45;2.95;;;;;;;11.44;100.00;98251.25;4468527;32;20093;-77
2023/10/24 05:03:46;;;;;;;7.40;3.30;;;;;;;11.46;100.00;98258.97;4479488;31;20096;-76
2023/10/24 05:06:14;;;;;;;9.15;3.17;;;;;;;11.41;100.00;98256.81;4483826;31;20096;-76
2023/10/24 05:08:41;;;;;;;5.05;3.25;;;;;;;11.36;100.00;98264.34;4483393;31;20103;-76
2023/10/24 05:11:10;;;;;;;6.80;3.80;;;;;;;11.21;100.00;98260.66;4482267;31;20104;-76
2023/10/24 05:13:37;;;;;;;13.98;4.25;;;;;;;11.11;100.00;98264.19;4481108;32;20142;-76
2023/10/24 05:16:05;;;;;;;7.30;4.12;;;;;;;11.07;100.00;98259.41;4478368;31;20798;-75
2023/10/24 05:18:33;;;;;;;6.70;3.50;;;;;;;11.03;100.00;98258.88;4481159;32;20126;-76
2023/10/24 05:21:00;;;;;;;6.60;3.37;;;;;;;11.02;100.00;98257.22;4480595;32;20160;-76
2023/10/24 05:23:29;;;;;;;8.85;4.10;;;;;;;11.02;100.00;98257.22;4482167;31;20120;-74
2023/10/24 05:25:57;;;;;;;8.00;3.53;;;;;;;11.06;100.00;98252.50;4479299;32;20942;-76
2023/10/24 05:28:25;;;;;;;10.65;3.92;;;;;;;11.04;100.00;98247.41;4481008;31;20498;-76
2023/10/24 05:30:55;;;;;;;8.27;3.67;;;;;;;11.10;100.00;98249.44;4484148;31;20103;-76
2023/10/24 05:33:22;;;;;;;13.70;3.85;;;;;;;11.10;100.00;98254.66;4479863;31;20100;-76
2023/10/24 05:35:49;;;;;;;6.28;3.75;;;;;;;11.13;100.00;98256.97;4467975;32;532945;-75
2023/10/24 05:38:16;;;;;;;6.68;3.83;;;;;;;11.06;100.00;98260.38;4483664;31;20466;-75
2023/10/24 05:40:45;;;;;;;9.55;4.20;;;;;;;11.10;100.00;98244.19;4483361;32;20817;-75
2023/10/24 05:43:12;;;;;;;10.40;3.67;;;;;;;11.18;100.00;98244.22;4483893;31;20120;-75
2023/10/24 05:45:40;;;;;;;10.40;3.67;;;;;;;11.33;100.00;98243.66;4483947;31;20122;-75
2023/10/24 05:48:07;;;;;;;15.55;4.60;;;;;;;11.36;100.00;98249.41;4481740;32;20131;-75
2023/10/24 05:50:36;;;;;;;11.88;4.22;;;;;;;11.47;100.00;98258.00;4482854;31;20101;-74
2023/10/24 05:53:04;;;;;;;20.02;5.62;;;;;;;11.59;100.00;98262.00;4477969;32;20085;-75
2023/10/24 05:55:33;;;;;;;6.72;3.85;;;;;;;11.71;100.00;98259.94;4470247;32;20529;-75
2023/10/24 05:58:01;;;;;;;17.92;4.57;;;;;;;11.85;100.00;98263.75;4483161;31;20099;-75
2023/10/24 06:00:28;;;;;;;18.92;5.70;;;;;;;11.95;100.00;98259.25;4476893;31;20125;-75
2023/10/24 06:02:56;;;;;;;8.73;4.93;;;;;;;12.02;100.00;98255.03;4471372;32;20603;-75
2023/10/24 06:05:23;;;;;;;13.77;4.90;;;;;;;12.16;100.00;98252.78;4472398;32;20152;-75
2023/10/24 06:07:51;;;;;;;8.80;4.60;;;;;;;12.23;100.00;98270.34;4470708;31;20104;-74
2023/10/24 06:10:19;;;;;;;14.30;4.37;;;;;;;12.31;100.00;98266.06;4470727;32;20158;-74
2023/10/24 06:12:46;;;;;;;14.85;5.25;;;;;;;12.49;100.00;98279.94;4469995;31;20932;-75
2023/10/24 06:15:13;;;;;;;10.52;4.97;;;;;;;12.59;100.00;98279.78;4470394;32;20167;-76
2023/10/24 06:17:41;;;;;;;13.30;5.37;;;;;;;12.66;100.00;98267.62;4473401;32;20536;-73
2023/10/24 06:20:09;;;;;;;9.68;5.37;;;;;;;12.86;100.00;98270.75;4469177;32;20107;-73
2023/10/24 06:22:37;;;;;;;11.88;5.18;;;;;;;12.87;100.00;98275.03;4471842;31;20107;-75
2023/10/24 06:25:04;;;;;;;13.52;7.25;;;;;;;12.80;100.00;98274.03;4467213;32;20097;-76
2023/10/24 06:27:32;;;;;;;20.15;10.77;;;;;;;12.90;100.00;98269.44;4463946;32;20109;-77
2023/10/24 06:29:59;;;;;;;15.40;6.53;;;;;;;12.88;100.00;98254.81;4465479;32;20134;-74
2023/10/24 06:32:27;;;;;;;13.93;7.60;;;;;;;13.02;100.00;98263.84;4464225;31;20120;-73
2023/10/24 06:34:55;;;;;;;11.80;7.40;;;;;;;13.10;100.00;98274.38;4468102;32;20164;-75
2023/10/24 06:37:22;;;;;;;13.98;6.90;;;;;;;13.26;100.00;98294.56;4468713;31;20088;-74
2023/10/24 06:39:50;;;;;;;17.58;7.50;;;;;;;13.41;100.00;98292.94;4469904;32;20119;-74
2023/10/24 06:42:17;;;;;;;11.10;6.43;;;;;;;13.52;100.00;98283.91;4465104;32;20104;-74
2023/10/24 06:44:46;;;;;;;16.12;7.45;;;;;;;13.63;100.00;98270.37;4468370;32;20164;-74
2023/10/24 06:47:13;;;;;;;15.05;6.53;;;;;;;13.73;100.00;98277.25;4473668;32;20084;-77
2023/10/24 06:49:41;;;;;;;10.30;5.45;;;;;;;13.70;100.00;98261.78;4469226;32;20108;-78
2023/10/24 06:52:11;;;;;;;8.07;4.75;;;;;;;13.69;100.00;98258.34;4465294;32;20085;-77
2023/10/24 06:54:39;;;;;;;11.52;4.72;;;;;;;13.83;100.00;98249.72;4466938;32;20096;-75
2023/10/24 06:57:06;;;;;;;10.02;4.62;;;;;;;14.05;100.00;98257.03;4458984;32;20131;-75
2023/10/24 06:59:34;;;;;;;12.13;5.00;;;;;;;14.04;100.00;98252.78;4466905;31;20112;-74
2023/10/24 07:02:02;;;;;;;9.57;4.90;;;;;;;14.00;100.00;98239.97;4466089;32;20101;-75
2023/10/24 07:04:29;;;;;;;14.68;5.15;;;;;;;14.03;100.00;98244.03;4464381;32;20121;-72
2023/10/24 07:06:57;;;;;;;10.75;5.30;;;;;;;14.09;100.00;98247.81;4467546;32;20112;-73
2023/10/24 07:09:25;;;;;;;13.18;4.70;;;;;;;14.29;100.00;98241.13;4466391;32;20139;-72
2023/10/24 07:11:52;;;;;;;10.57;4.55;;;;;;;14.35;100.00;98252.75;4469322;31;20131;-75
2023/10/24 07:14:20;;;;;;;8.00;4.55;;;;;;;14.44;100.00;98262.25;4467779;31;20097;-74
2023/10/24 07:16:49;;;;;;;8.95;4.65;;;;;;;14.38;100.00;98252.41;4462566;32;20168;-75
2023/10/24 07:19:18;;;;;;;12.15;4.35;;;;;;;14.35;100.00;98253.59;4465043;32;20153;-76
2023/10/24 07:21:46;;;;;;;5.55;3.83;;;;;;;14.62;100.00;98250.66;4463177;32;20118;-76
2023/10/24 07:24:13;;;;;;;10.45;4.62;;;;;;;14.84;100.00;98241.09;4461466;32;20158;-75
2023/10/24 07:26:41;;;;;;;6.57;4.18;;;;;;;14.93;100.00;98242.66;4470897;32;20096;-75
2023/10/24 07:29:09;;;;;;;10.65;4.45;;;;;;;15.02;100.00;98249.50;4468190;32;20088;-78
2023/10/24 07:31:39;;;;;;;12.32;5.22;;;;;;;15.08;100.00;98256.72;4469437;32;20116;-76
2023/10/24 07:34:06;;;;;;;8.70;4.18;;;;;;;15.08;100.00;98253.25;4468970;32;20122;-79
2023/10/24 07:36:35;;;;;;;9.25;3.47;;;;;;;15.23;100.00;98253.25;4470074;31;20100;-77
2023/10/24 07:39:05;;;;;;;13.20;4.15;;;;;;;15.30;100.00;98234.91;4463421;32;20560;-75
2023/10/24 07:41:33;;;;;;;10.70;4.57;;;;;;;15.32;100.00;98223.19;4465909;31;20176;-77
2023/10/24 07:44:00;;;;;;;11.68;4.40;;;;;;;15.33;100.00;98229.25;4465566;32;20397;-78
2023/10/24 07:46:27;;;;;;;7.07;4.45;;;;;;;15.39;100.00;98233.81;4465582;31;20096;-77
2023/10/24 07:48:57;;;;;;;12.70;4.50;;;;;;;15.62;100.00;98233.72;4465187;32;20100;-75
2023/10/24 07:51:27;;;;;;;11.60;6.78;;;;;;;15.56;100.00;98239.72;4471939;32;20097;-77
2023/10/24 07:53:55;;;;;;;10.75;5.72;;;;;;;15.56;100.00;98237.09;4468672;32;20104;-78
2023/10/24 07:56:22;;;;;;;9.63;7.03;;;;;;;15.67;100.00;98226.09;4467399;32;20084;-80
2023/10/24 07:58:50;;;;;;;12.10;6.07;;;;;;;15.65;100.00;98214.06;4469264;32;20103;-78
2023/10/24 08:01:20;;;;;;;14.02;6.05;;;;;;;15.63;100.00;98216.87;4469265;32;20119;-76
2023/10/24 08:03:48;;;;;;;12.00;5.53;;;;;;;15.79;100.00;98219.38;4468845;32;20109;-77
2023/10/24 08:06:15;;;;;;;8.40;5.53;;;;;;;16.06;100.00;98229.41;4472105;31;20114;-75
2023/10/24 08:08:43;;;;;;;8.18;4.82;;;;;;;16.09;100.00;98232.53;4469988;32;20115;-76
2023/10/24 08:11:12;;;;;;;13.00;5.00;;;;;;;16.15;100.00;98233.59;4467378;32;20101;-76
2023/10/24 08:13:40;;;;;;;8.32;4.72;;;;;;;16.24;100.00;98223.72;4473286;32;20097;-78
2023/10/24 08:16:07;;;;;;;13.80;4.32;;;;;;;16.25;100.00;98230.66;4469276;31;20120;-75
2023/10/24 08:18:37;;;;;;;10.82;4.55;;;;;;;16.07;100.00;98237.16;4462926;32;20093;-76
2023/10/24 08:21:09;;;;;;;10.38;4.57;;;;;;;16.12;100.00;98234.81;4466476;32;20103;-77
2023/10/24 08:23:36;;;;;;;8.30;4.45;;;;;;;15.70;100.00;98232.81;4467980;32;20101;-80
2023/10/24 08:26:03;;;;;;;5.57;3.90;;;;;;;15.82;100.00;98241.13;4468579;32;20152;-77
2023/10/24 08:28:32;;;;;;;6.40;3.58;;;;;;;15.77;100.00;98246.91;4470562;32;20104;-79
2023/10/24 08:31:00;;;;;;;14.85;4.45;;;;;;;15.79;100.00;98240.50;4467150;31;20510;-77
2023/10/24 08:33:29;;;;;;;9.10;4.40;;;;;;;15.75;100.00;98225.16;4465529;32;20156;-78
2023/10/24 08:35:57;;;;;;;7.50;4.12;;;;;;;15.90;100.00;98223.34;4471277;32;20108;-76
2023/10/24 08:38:24;;;;;;;14.15;4.93;;;;;;;15.92;100.00;98220.53;4465902;32;20127;-77
2023/10/24 08:40:51;;;;;;;8.73;4.22;;;;;;;16.12;100.00;98228.69;4469776;32;20093;-77
2023/10/24 08:43:20;;;;;;;6.57;4.15;;;;;;;16.30;100.00;98225.63;4468413;32;20512;-77
2023/10/24 08:45:51;;;;;;;7.78;4.45;;;;;;;16.34;100.00;98229.53;4471952;32;20096;-77
2023/10/24 08:48:19;;;;;;;9.80;5.32;;;;;;;16.23;100.00;98228.22;4468387;32;20099;-77
2023/10/24 08:50:48;;;;;;;12.00;5.87;;;;;;;16.34;100.00;98221.59;4471688;31;20136;-76
2023/10/24 08:53:15;;;;;;;12.60;4.75;;;;;;;16.54;100.00;98221.00;4466754;32;20138;-77
2023/10/24 08:55:50;;;;;;;6.68;5.05;;;;;;;16.72;100.00;98226.66;4468861;31;20540;-77
2023/10/24 08:58:20;;;;;;;13.45;5.85;;;;;;;16.64;100.00;98217.00;4469259;32;20084;-76
2023/10/24 09:00:48;;;;;;;8.82;4.87;;;;;;;16.60;100.00;98225.53;4469435;32;20542;-76
2023/10/24 09:03:16;;;;;;;10.75;5.00;;;;;;;16.74;100.00;98226.44;4470992;32;20101;-77
2023/10/24 09:05:47;;;;;;;9.13;4.60;;;;;;;16.78;100.00;98215.31;4466149;31;20100;-76
2023/10/24 09:08:16;;;;;;;13.77;4.78;;;;;;;16.94;100.00;98202.84;4469471;32;20085;-78
2023/10/24 09:10:47;;;;;;;9.48;5.05;;;;;;;16.85;100.00;98202.94;4467869;32;20097;-77
2023/10/24 09:13:14;;;;;;;14.68;4.87;;;;;;;16.88;100.00;98199.16;4471145;32;20100;-75
2023/10/24 09:15:41;;;;;;;15.32;5.30;;;;;;;16.95;100.00;98184.12;4468812;32;20092;-77
2023/10/24 09:18:09;;;;;;;10.77;4.50;;;;;;;17.05;100.00;98178.50;4472867;32;20127;-77
2023/10/24 09:20:36;;;;;;;12.13;4.55;;;;;;;17.32;100.00;98178.66;4472255;32;20103;-77
2023/10/24 09:23:09;;;;;;;9.38;4.78;;;;;;;17.29;100.00;98176.38;4466071;32;20145;-77
2023/10/24 09:25:37;;;;;;;14.23;5.00;;;;;;;17.29;100.00;98177.22;4471176;32;20103;-76
2023/10/24 09:28:18;;;;;;;9.73;4.43;;;;;;;17.58;100.00;98190.41;4467875;32;20466;-77
2023/10/24 09:30:46;;;;;;;6.28;4.15;;;;;;;17.55;100.00;98189.78;4468154;32;20556;-76
2023/10/24 09:33:14;;;;;;;9.93;3.72;;;;;;;17.78;100.00;98185.22;4466987;32;20158;-77
2023/10/24 09:35:42;;;;;;;10.65;3.83;;;;;;;18.20;100.00;98193.94;4466114;31;20872;-77
2023/10/24 09:38:21;;;;;;;7.82;3.50;;;;;;;18.15;100.00;98197.16;4465485;32;20110;-77
2023/10/24 09:40:49;;;;;;;9.88;3.70;;;;;;;18.13;100.00;98199.19;4466220;32;20101;-77
2023/10/24 09:43:24;;;;;;;6.90;3.70;;;;;;;18.07;100.00;98202.66;4470948;32;20902;-77
2023/10/24 09:45:53;;;;;;;16.92;4.18;;;;;;;18.17;100.00;98204.91;4468178;32;20237;-77
2023/10/24 09:48:22;;;;;;;13.25;4.43;;;;;;;18.45;100.00;98202.13;4468824;32;20104;-77
2023/10/24 09:50:52;;;;;;;13.23;4.93;;;;;;;18.41;100.00;98208.84;4467047;32;20080;-77
2023/10/24 09:53:20;;;;;;;10.35;4.40;;;;;;;18.46;100.00;98198.47;4470589;32;20164;-76
2023/10/24 09:55:48;;;;;;;8.15;4.20;;;;;;;18.66;100.00;98177.25;4467473;32;20122;-79
2023/10/24 09:58:18;;;;;;;8.52;3.92;;;;;;;18.78;100.00;98175.62;4470935;32;20134;-78
2023/10/24 10:00:47;;;;;;;6.70;3.50;;;;;;;18.87;100.00;98176.25;4483830;31;20769;-76
2023/10/24 10:03:15;;;;;;;7.43;3.92;;;;;;;19.25;100.00;98185.41;4482078;32;20158;-78
2023/10/24 10:05:44;;;;;;;6.30;3.78;;;;;;;18.92;100.00;98175.62;4480509;32;20122;-77
2023/10/24 10:08:15;;;;;;;9.90;4.05;;;;;;;19.04;100.00;98162.56;4474552;32;20171;-77
2023/10/24 10:10:45;;;;;;;10.32;5.93;;;;;;;19.12;100.00;98162.34;4475706;32;20123;-76
2023/10/24 10:13:17;;;;;;;;;;;;;;;19.24;100.00;98141.28;4480093;32;20517;-78
2023/10/24 10:16:06;;;;;;;7.45;3.42;;;;;;;18.99;100.00;98130.53;4473110;32;20021;-79
2023/10/24 10:18:45;;;;;;;8.63;4.25;;;;;;;19.34;100.00;98120.41;4479577;31;20452;-78
2023/10/24 10:21:52;;;;;;;14.10;4.50;;;;;;;19.16;100.00;98123.72;4476329;32;20115;-77
2023/10/24 10:24:39;;;;;;;7.55;2.75;;;;;;;18.78;100.00;98122.53;4478238;31;20100;-77
2023/10/24 10:27:43;;;;;;;7.35;2.92;;;;;;;18.57;100.00;98115.62;4475505;32;20126;-77
2023/10/24 10:30:18;;;;;;;11.12;3.10;;;;;;;18.74;100.00;98128.47;4479080;32;20556;-77
2023/10/24 10:33:11;;;;;;;10.85;3.10;;;;;;;18.69;100.00;98115.00;4479150;32;20149;-78
2023/10/24 10:36:05;;;;;;;11.50;3.92;;;;;;;18.73;100.00;98110.94;4476573;32;20170;-75
2023/10/24 10:38:39;;;;;;;9.38;4.05;;;;;;;18.80;100.00;98109.06;4478297;31;20097;-74
2023/10/24 10:41:26;;;;;;;10.13;3.90;;;;;;;18.96;100.00;98108.66;4482436;31;20651;-75
2023/10/24 10:44:01;;;;;;;8.68;3.22;;;;;;;18.88;100.00;98103.59;4480987;31;20123;-74
2023/10/24 10:46:30;;;;;;;7.55;3.35;;;;;;;19.20;100.00;98098.41;4481545;31;20151;-74
2023/10/24 10:49:00;;;;;;;11.02;3.15;;;;;;;19.28;100.00;98106.13;4477789;31;20108;-76
2023/10/24 10:51:31;;;;;;;9.32;3.62;;;;;;;19.11;100.00;98111.09;4477735;32;20119;-76
2023/10/24 10:54:17;;;;;;;3.75;2.50;;;;;;;18.92;100.00;98110.09;4474555;31;20100;-77
2023/10/24 10:56:47;;;;;;;9.98;2.60;;;;;;;19.02;100.00;98116.84;4477280;31;20107;-76
2023/10/24 10:59:40;;;;;;;9.13;3.15;;;;;;;18.89;100.00;98118.47;4470398;32;20130;-77
2023/10/24 11:02:26;;;;;;;5.75;2.28;;;;;;;18.52;100.00;98112.78;4480441;32;20545;-76
2023/10/24 11:04:53;;;;;;;8.82;2.70;;;;;;;18.35;100.00;98109.72;4479594;32;20216;-77
2023/10/24 11:07:50;;;;;;;5.47;2.60;;;;;;;18.35;100.00;98116.84;4460237;31;20806;-76
2023/10/24 11:10:19;;;;;;;8.98;2.78;;;;;;;18.31;100.00;98110.31;4464931;32;20089;-75
2023/10/24 11:12:47;;;;;;;8.10;3.00;;;;;;;18.26;100.00;98117.03;4467914;32;20542;-73
2023/10/24 11:15:16;;;;;;;12.93;2.75;;;;;;;18.44;100.00;98111.13;4470804;32;20092;-76
2023/10/24 11:17:46;;;;;;;13.15;3.20;;;;;;;18.62;100.00;98120.31;4470401;31;20124;-75
2023/10/24 11:20:13;;;;;;;9.15;2.72;;;;;;;18.81;100.00;98121.31;4473736;31;20104;-75
2023/10/24 11:22:50;;;;;;;8.55;3.17;;;;;;;18.92;100.00;98118.06;4466524;32;20113;-76
2023/10/24 11:25:19;;;;;;;7.28;2.60;;;;;;;19.14;100.00;98105.34;4472922;32;20109;-76
2023/10/24 11:27:50;;;;;;;6.87;2.40;;;;;;;19.10;100.00;98106.78;4471701;32;20138;-75
2023/10/24 11:30:18;;;;;;;5.72;2.40;;;;;;;18.66;100.00;98110.13;4473602;32;20427;-75
2023/10/24 11:32:46;;;;;;;12.68;2.20;;;;;;;18.54;100.00;98102.75;4469873;32;20076;-75